Time;durP1;ratioP1;P1;durP2;ratioP2;P2;SDS_P1;SDS_P2;PMS_P1;PMS_P2;Temp;Humidity;BMP_temperature;BMP_pressure;BME280_temperature;BME280_humidity;BME280_pressure;Samples;Min_cycle;Max_cycle;Signal;HPM_P1;HPM_P2
2021/10/10 00:02:20;;;;;;;20.38;11.85;;;7.60;1.00;;;;;;5052683;28;20036;-76
2021/10/10 00:04:46;;;;;;;16.27;11.90;;;7.60;1.00;;;;;;5093288;28;20055;-75
2021/10/10 00:07:11;;;;;;;12.57;10.55;;;7.60;1.00;;;;;;5096297;28;20020;-75
2021/10/10 00:09:37;;;;;;;13.70;11.77;;;7.60;1.00;;;;;;5095982;28;20043;-76
2021/10/10 00:12:03;;;;;;;14.25;10.15;;;7.60;1.00;;;;;;5095991;28;20027;-77
2021/10/10 00:14:28;;;;;;;11.40;10.20;;;7.50;1.00;;;;;;5064560;28;20031;-77
2021/10/10 00:16:54;;;;;;;17.17;10.65;;;7.50;1.00;;;;;;5082040;28;20087;-77
2021/10/10 00:19:20;;;;;;;12.57;10.68;;;7.40;1.00;;;;;;5079699;28;20506;-76
2021/10/10 00:21:45;;;;;;;16.38;11.90;;;7.40;1.00;;;;;;5060070;28;20033;-77
2021/10/10 00:24:11;;;;;;;18.63;12.20;;;7.40;1.00;;;;;;5077728;28;20492;-77
2021/10/10 00:26:36;;;;;;;26.42;12.75;;;7.40;1.00;;;;;;5079673;28;20472;-76
2021/10/10 00:29:02;;;;;;;19.52;12.23;;;7.30;1.00;;;;;;5076264;28;20074;-75
2021/10/10 00:31:27;;;;;;;16.65;12.50;;;7.30;1.00;;;;;;5054765;28;20028;-76
2021/10/10 00:33:53;;;;;;;13.68;12.05;;;7.30;1.00;;;;;;5070081;28;20032;-77
2021/10/10 00:36:18;;;;;;;15.38;11.75;;;7.30;1.00;;;;;;5081455;28;20020;-77
2021/10/10 00:38:44;;;;;;;13.70;12.32;;;7.30;1.00;;;;;;5077109;28;20032;-76
2021/10/10 00:41:10;;;;;;;15.98;12.07;;;7.30;1.00;;;;;;5077474;28;20081;-77
2021/10/10 00:43:35;;;;;;;16.45;12.88;;;7.20;1.00;;;;;;5057149;28;20085;-77
2021/10/10 00:46:01;;;;;;;15.70;13.65;;;7.20;1.00;;;;;;5070320;28;20029;-76
2021/10/10 00:48:26;;;;;;;14.77;12.18;;;7.20;1.00;;;;;;5078736;28;20033;-76
2021/10/10 00:50:52;;;;;;;19.20;12.48;;;7.20;1.00;;;;;;5072439;28;20032;-76
2021/10/10 00:53:19;;;;;;;14.38;11.23;;;7.20;1.00;;;;;;5072886;28;21272;-76
2021/10/10 00:55:54;;;;;;;19.73;12.55;;;7.10;1.00;;;;;;5053236;28;20052;-76
2021/10/10 00:58:25;;;;;;;15.98;12.32;;;7.20;1.00;;;;;;5072472;28;20029;-77
2021/10/10 01:00:53;;;;;;;17.73;10.98;;;7.20;1.00;;;;;;5071251;28;20024;-75
2021/10/10 01:03:19;;;;;;;16.52;12.77;;;7.20;1.00;;;;;;5073744;28;20033;-75
2021/10/10 01:05:46;;;;;;;18.33;13.80;;;7.10;1.00;;;;;;5071536;28;20062;-76
2021/10/10 01:08:16;;;;;;;16.38;12.80;;;7.10;1.00;;;;;;5052711;28;20025;-76
2021/10/10 01:10:44;;;;;;;16.87;12.60;;;7.00;1.00;;;;;;5077036;28;20097;-77
2021/10/10 01:13:10;;;;;;;15.48;11.98;;;7.00;1.00;;;;;;5078678;28;20037;-76
2021/10/10 01:15:36;;;;;;;15.10;12.35;;;7.00;1.00;;;;;;5074574;28;20484;-77
2021/10/10 01:18:01;;;;;;;20.00;13.55;;;7.00;1.00;;;;;;5074435;28;20036;-76
2021/10/10 01:20:27;;;;;;;14.13;11.35;;;6.90;1.00;;;;;;5079347;28;20035;-76
2021/10/10 01:22:54;;;;;;;16.63;12.40;;;6.90;1.00;;;;;;5080989;28;20035;-77
2021/10/10 01:25:19;;;;;;;22.98;13.00;;;7.00;1.00;;;;;;5078356;28;20695;-76
2021/10/10 01:27:45;;;;;;;14.57;12.65;;;7.00;1.00;;;;;;5074455;28;20024;-76
2021/10/10 01:30:11;;;;;;;20.48;12.27;;;6.90;1.00;;;;;;5076606;28;20158;-78
2021/10/10 01:32:37;;;;;;;15.05;11.55;;;6.90;1.00;;;;;;5075601;28;20020;-76
2021/10/10 01:35:03;;;;;;;13.43;11.13;;;6.90;1.00;;;;;;5057372;28;20085;-77
2021/10/10 01:37:28;;;;;;;17.23;11.98;;;6.90;1.00;;;;;;5077237;28;20107;-76
2021/10/10 01:39:54;;;;;;;15.60;11.88;;;6.90;1.00;;;;;;5075190;28;20519;-76
2021/10/10 01:42:20;;;;;;;18.65;12.07;;;6.90;1.00;;;;;;5073442;28;20314;-76
2021/10/10 01:44:46;;;;;;;16.38;12.88;;;6.80;1.00;;;;;;5074345;28;20488;-76
2021/10/10 01:47:12;;;;;;;14.00;11.32;;;6.80;1.00;;;;;;5095104;22;20037;-75
2021/10/10 01:49:40;;;;;;;18.13;11.85;;;6.70;1.00;;;;;;5033720;28;20042;-75
2021/10/10 01:52:06;;;;;;;16.20;12.88;;;6.70;1.00;;;;;;5033932;28;20029;-76
2021/10/10 01:54:32;;;;;;;15.32;11.55;;;6.70;1.00;;;;;;5033175;28;20061;-75
2021/10/10 01:56:57;;;;;;;13.85;12.35;;;6.70;1.00;;;;;;5028615;28;20464;-75
2021/10/10 01:59:23;;;;;;;16.58;11.55;;;6.70;1.00;;;;;;5012981;28;20105;-76
2021/10/10 02:01:49;;;;;;;15.85;12.23;;;6.70;1.00;;;;;;5015546;28;20028;-76
2021/10/10 02:04:14;;;;;;;13.25;11.82;;;6.70;39.60;;;;;;5014713;28;20440;-75
2021/10/10 02:06:40;;;;;;;15.70;12.45;;;6.60;99.90;;;;;;5015261;28;20482;-75
2021/10/10 02:09:06;;;;;;;15.90;12.68;;;6.50;99.90;;;;;;5014512;28;20049;-74
2021/10/10 02:11:31;;;;;;;16.23;12.25;;;6.50;99.90;;;;;;5008811;28;20030;-76
2021/10/10 02:13:57;;;;;;;17.05;12.15;;;6.50;99.90;;;;;;4991859;28;20030;-75
2021/10/10 02:16:22;;;;;;;15.45;11.82;;;6.40;99.90;;;;;;5013453;28;20101;-74
2021/10/10 02:18:48;;;;;;;16.88;13.15;;;6.40;99.90;;;;;;5005559;28;20018;-74
2021/10/10 02:21:14;;;;;;;15.48;11.80;;;6.40;99.90;;;;;;5015347;28;20022;-75
2021/10/10 02:23:40;;;;;;;20.52;13.40;;;6.40;99.90;;;;;;5013288;28;20041;-74
2021/10/10 02:26:05;;;;;;;17.05;12.68;;;6.40;99.90;;;;;;5015263;28;20057;-75
2021/10/10 02:28:31;;;;;;;15.07;13.45;;;6.30;99.90;;;;;;5016612;28;20038;-75
2021/10/10 02:30:56;;;;;;;18.10;12.68;;;6.30;99.90;;;;;;5014150;28;20050;-75
2021/10/10 02:33:22;;;;;;;17.90;13.68;;;6.40;99.90;;;;;;5011762;28;20030;-75
2021/10/10 02:35:48;;;;;;;20.67;11.93;;;6.40;99.90;;;;;;5009871;28;20031;-74
2021/10/10 02:38:13;;;;;;;20.67;13.43;;;6.40;99.90;;;;;;5012950;28;20030;-74
2021/10/10 02:40:39;;;;;;;17.20;12.75;;;6.20;99.90;;;;;;5014020;28;20033;-74
2021/10/10 02:43:05;;;;;;;19.27;12.50;;;6.20;99.90;;;;;;5009405;28;20527;-75
2021/10/10 02:45:31;;;;;;;15.20;12.07;;;6.10;99.90;;;;;;5015221;28;20045;-75
2021/10/10 02:47:56;;;;;;;15.23;12.63;;;6.10;99.90;;;;;;5020145;28;20474;-74
2021/10/10 02:50:22;;;;;;;21.40;14.43;;;6.10;99.90;;;;;;5020288;28;20030;-75
2021/10/10 02:52:47;;;;;;;17.30;13.38;;;6.10;99.90;;;;;;5013005;28;20053;-76
2021/10/10 02:55:13;;;;;;;16.13;13.55;;;6.10;99.90;;;;;;5012614;28;20029;-75
2021/10/10 02:57:38;;;;;;;19.00;14.55;;;6.10;99.90;;;;;;5013294;28;20048;-73
2021/10/10 03:00:05;;;;;;;24.30;14.20;;;6.00;99.90;;;;;;5013801;28;20080;-75
2021/10/10 03:02:31;;;;;;;18.00;14.23;;;6.00;99.90;;;;;;5018712;28;20072;-74
2021/10/10 03:04:57;;;;;;;21.00;14.18;;;6.00;99.90;;;;;;5020125;28;20485;-75
2021/10/10 03:07:23;;;;;;;16.30;13.52;;;6.00;99.90;;;;;;5014844;28;20026;-75
2021/10/10 03:09:48;;;;;;;21.88;14.55;;;6.00;99.90;;;;;;5013793;28;20045;-74
2021/10/10 03:12:14;;;;;;;18.33;14.32;;;6.10;99.90;;;;;;5026315;28;20037;-75
2021/10/10 03:14:40;;;;;;;21.40;14.05;;;6.00;99.90;;;;;;5027894;28;20025;-75
2021/10/10 03:17:06;;;;;;;22.85;14.20;;;6.00;99.90;;;;;;4996884;28;20030;-75
2021/10/10 03:19:31;;;;;;;16.08;14.25;;;6.10;99.90;;;;;;5013155;28;20018;-75
2021/10/10 03:21:57;;;;;;;17.60;14.23;;;6.00;99.90;;;;;;5020562;28;20057;-75
2021/10/10 03:24:22;;;;;;;19.73;15.70;;;5.90;99.90;;;;;;4996507;28;20030;-75
2021/10/10 03:26:48;;;;;;;18.45;13.60;;;6.00;99.90;;;;;;5012659;28;20030;-74
2021/10/10 03:29:13;;;;;;;17.13;14.18;;;6.00;99.90;;;;;;5012937;28;20030;-75
2021/10/10 03:31:39;;;;;;;19.75;14.38;;;6.00;99.90;;;;;;5021688;28;20014;-75
2021/10/10 03:34:05;;;;;;;20.48;15.13;;;6.00;99.90;;;;;;5017783;28;20316;-75
2021/10/10 03:36:30;;;;;;;18.50;14.25;;;5.90;99.90;;;;;;5014043;28;20449;-75
2021/10/10 03:38:56;;;;;;;19.50;15.02;;;5.90;99.90;;;;;;5012759;28;20030;-75
2021/10/10 03:41:21;;;;;;;18.70;15.27;;;5.90;99.90;;;;;;5011890;28;20022;-76
2021/10/10 03:43:47;;;;;;;18.98;15.15;;;5.90;99.90;;;;;;5012939;28;20029;-75
2021/10/10 03:46:13;;;;;;;19.13;13.95;;;5.90;99.90;;;;;;5014959;28;20038;-75
2021/10/10 03:48:38;;;;;;;16.27;12.90;;;5.90;99.90;;;;;;5015569;28;20056;-75
2021/10/10 03:51:04;;;;;;;19.45;15.02;;;5.90;99.90;;;;;;5015802;28;20036;-74
2021/10/10 03:53:52;;;;;;;17.73;14.35;;;5.90;99.90;;;;;;5014094;28;20030;-75
2021/10/10 03:56:17;;;;;;;20.77;14.32;;;5.80;99.90;;;;;;5004155;28;20041;-73
2021/10/10 03:58:43;;;;;;;20.05;14.80;;;5.80;99.90;;;;;;5028832;28;20489;-77
2021/10/10 04:01:08;;;;;;;17.98;14.43;;;5.70;99.90;;;;;;5033670;28;20022;-74
2021/10/10 04:03:34;;;;;;;22.00;14.68;;;5.70;99.90;;;;;;5032533;28;20033;-75
2021/10/10 04:06:02;;;;;;;19.73;13.90;;;5.70;99.90;;;;;;5029062;28;20033;-75
2021/10/10 04:08:28;;;;;;;14.40;12.82;;;5.60;99.90;;;;;;5017156;28;20017;-73
2021/10/10 04:10:53;;;;;;;15.50;13.75;;;5.60;99.90;;;;;;5034609;28;20049;-74
2021/10/10 04:13:19;;;;;;;18.80;14.20;;;5.50;99.90;;;;;;5033850;28;20025;-74
2021/10/10 04:15:44;;;;;;;24.80;13.55;;;5.50;99.90;;;;;;5030364;28;20048;-75
2021/10/10 04:18:10;;;;;;;20.88;14.93;;;5.50;99.90;;;;;;5018164;28;20030;-74
2021/10/10 04:20:36;;;;;;;20.90;14.77;;;5.50;99.90;;;;;;5016326;28;20025;-75
2021/10/10 04:23:01;;;;;;;21.73;15.23;;;5.50;99.90;;;;;;5007646;28;20215;-73
2021/10/10 04:25:27;;;;;;;21.40;16.35;;;5.50;99.90;;;;;;5019681;28;20101;-75
2021/10/10 04:27:52;;;;;;;24.52;17.20;;;5.50;99.90;;;;;;5027315;28;20021;-72
2021/10/10 04:30:19;;;;;;;21.25;17.02;;;5.50;99.90;;;;;;5026813;28;20033;-74
2021/10/10 04:32:44;;;;;;;21.90;17.65;;;5.60;99.90;;;;;;5024832;28;20025;-75
2021/10/10 04:35:12;;;;;;;22.25;15.80;;;5.60;99.90;;;;;;5023393;28;20045;-74
2021/10/10 04:37:38;;;;;;;19.42;15.90;;;5.50;99.90;;;;;;5030890;28;20018;-75
2021/10/10 04:40:04;;;;;;;24.92;15.32;;;5.50;99.90;;;;;;5007188;28;20490;-74
2021/10/10 04:42:29;;;;;;;19.67;16.05;;;5.50;99.90;;;;;;5025190;28;20049;-75
2021/10/10 04:44:55;;;;;;;23.38;16.10;;;5.40;99.90;;;;;;5020464;28;20466;-74
2021/10/10 04:47:21;;;;;;;24.27;16.42;;;5.40;99.90;;;;;;5023811;28;20030;-73
2021/10/10 04:49:47;;;;;;;20.38;14.63;;;5.40;99.90;;;;;;5023934;28;20026;-74
2021/10/10 04:52:12;;;;;;;20.45;14.88;;;5.40;99.90;;;;;;5019240;28;20025;-75
2021/10/10 04:54:38;;;;;;;19.65;14.65;;;5.30;99.90;;;;;;5019229;28;20045;-73
2021/10/10 04:57:03;;;;;;;19.70;14.82;;;5.30;99.90;;;;;;5023164;28;20034;-73
2021/10/10 04:59:29;;;;;;;18.25;15.07;;;5.30;99.90;;;;;;5019115;28;20030;-75
2021/10/10 05:01:54;;;;;;;18.60;14.30;;;5.30;99.90;;;;;;5018835;28;20080;-76
2021/10/10 05:04:20;;;;;;;18.67;14.63;;;5.20;99.90;;;;;;5013151;28;20091;-75
2021/10/10 05:06:45;;;;;;;18.17;14.43;;;5.20;99.90;;;;;;5017060;28;20068;-74
2021/10/10 05:09:11;;;;;;;19.20;14.73;;;5.20;99.90;;;;;;5017978;28;20045;-75
2021/10/10 05:11:36;;;;;;;23.85;15.18;;;5.20;99.90;;;;;;5018864;28;20481;-75
2021/10/10 05:14:02;;;;;;;18.42;13.98;;;5.20;99.90;;;;;;5022521;28;20034;-74
2021/10/10 05:16:27;;;;;;;17.63;13.10;;;5.10;99.90;;;;;;5018523;28;20025;-75
2021/10/10 05:18:53;;;;;;;16.48;13.60;;;5.20;99.90;;;;;;5012490;28;20161;-74
2021/10/10 05:21:19;;;;;;;18.05;14.10;;;5.20;99.90;;;;;;5019506;28;20045;-74
2021/10/10 05:23:44;;;;;;;18.92;13.73;;;5.20;99.90;;;;;;5019046;28;20065;-75
2021/10/10 05:26:11;;;;;;;21.77;14.57;;;5.20;99.90;;;;;;5018088;28;20101;-75
2021/10/10 05:28:36;;;;;;;15.98;14.02;;;5.20;99.90;;;;;;5017070;28;20014;-74
2021/10/10 05:31:02;;;;;;;15.00;13.25;;;5.20;99.90;;;;;;5017598;28;20029;-74
2021/10/10 05:33:28;;;;;;;18.25;14.82;;;5.20;99.90;;;;;;5008758;28;20025;-74
2021/10/10 05:35:53;;;;;;;17.48;13.60;;;5.20;99.90;;;;;;5017658;28;20102;-76
2021/10/10 05:38:19;;;;;;;18.35;13.77;;;5.20;99.90;;;;;;5017913;28;20037;-76
2021/10/10 05:40:44;;;;;;;24.33;14.90;;;5.20;99.90;;;;;;5018403;28;20085;-75
2021/10/10 05:43:10;;;;;;;17.73;13.68;;;5.20;99.90;;;;;;5017565;28;20049;-75
2021/10/10 05:45:35;;;;;;;15.77;14.02;;;5.20;99.90;;;;;;5016507;28;20041;-75
2021/10/10 05:48:01;;;;;;;19.00;14.55;;;5.20;99.90;;;;;;5018198;28;20037;-74
2021/10/10 05:50:26;;;;;;;19.65;14.48;;;5.10;99.90;;;;;;5016391;28;20088;-74
2021/10/10 05:52:52;;;;;;;18.77;14.05;;;5.10;99.90;;;;;;5017052;28;20034;-75
2021/10/10 05:55:21;;;;;;;18.35;14.73;;;5.10;99.90;;;;;;5017009;28;20057;-75
2021/10/10 05:57:49;;;;;;;18.85;14.43;;;5.10;99.90;;;;;;4999947;28;20656;-76
2021/10/10 06:00:16;;;;;;;18.63;13.25;;;5.10;99.90;;;;;;5016956;28;20018;-74
2021/10/10 06:02:43;;;;;;;17.45;13.45;;;5.20;99.90;;;;;;5016914;28;20485;-75
2021/10/10 06:05:10;;;;;;;20.98;13.80;;;5.20;99.90;;;;;;5018344;28;20030;-74
2021/10/10 06:07:36;;;;;;;19.95;14.02;;;5.20;99.90;;;;;;5000448;28;20030;-75
2021/10/10 06:10:05;;;;;;;17.25;13.07;;;5.30;99.90;;;;;;5017125;28;20029;-75
2021/10/10 06:12:31;;;;;;;16.45;13.30;;;5.30;99.90;;;;;;5017261;28;20493;-74
2021/10/10 06:14:59;;;;;;;18.02;13.45;;;5.40;99.90;;;;;;5016284;28;20040;-73
2021/10/10 06:17:24;;;;;;;18.27;13.63;;;5.50;99.90;;;;;;5015056;28;20018;-75
2021/10/10 06:19:50;;;;;;;17.13;12.90;;;5.60;99.90;;;;;;5012013;28;20038;-75
2021/10/10 06:22:16;;;;;;;15.48;13.45;;;5.60;99.90;;;;;;5018378;28;20121;-76
2021/10/10 06:24:42;;;;;;;18.48;12.93;;;5.70;99.90;;;;;;5016023;28;20033;-76
2021/10/10 06:27:07;;;;;;;22.35;13.40;;;5.70;99.90;;;;;;5016406;28;20034;-75
2021/10/10 06:29:33;;;;;;;17.85;14.20;;;5.80;99.90;;;;;;5017696;28;20718;-75
2021/10/10 06:31:58;;;;;;;18.50;13.25;;;5.90;99.90;;;;;;5017500;28;20041;-76
2021/10/10 06:34:24;;;;;;;16.42;12.68;;;6.00;99.90;;;;;;4999796;28;20032;-76
2021/10/10 06:36:49;;;;;;;21.23;14.10;;;6.00;99.90;;;;;;5016760;28;20034;-75
2021/10/10 06:39:16;;;;;;;16.17;14.27;;;6.00;99.90;;;;;;5016370;28;20026;-77
2021/10/10 06:41:43;;;;;;;21.25;14.38;;;6.00;99.90;;;;;;5016603;28;20030;-75
2021/10/10 06:44:09;;;;;;;16.58;14.23;;;6.00;99.90;;;;;;5015344;28;20030;-75
2021/10/10 06:46:34;;;;;;;16.85;15.10;;;6.00;99.90;;;;;;5017494;28;20037;-77
2021/10/10 06:49:00;;;;;;;16.42;12.43;;;6.00;99.90;;;;;;5012255;28;20065;-75
2021/10/10 06:51:25;;;;;;;17.45;12.40;;;6.00;99.90;;;;;;5015927;28;20395;-76
2021/10/10 06:53:51;;;;;;;17.92;13.65;;;6.00;99.90;;;;;;5007913;28;20030;-76
2021/10/10 06:56:17;;;;;;;16.02;13.02;;;6.10;99.90;;;;;;5016909;28;20029;-75
2021/10/10 06:58:42;;;;;;;17.40;13.05;;;6.20;99.90;;;;;;5023834;28;20029;-74
2021/10/10 07:01:14;;;;;;;14.50;12.02;;;6.30;99.90;;;;;;5037462;28;20082;-75
2021/10/10 07:03:40;;;;;;;17.63;12.45;;;6.50;99.90;;;;;;5035909;28;20033;-76
2021/10/10 07:06:05;;;;;;;19.25;14.75;;;6.60;99.90;;;;;;5034487;28;20074;-73
2021/10/10 07:08:31;;;;;;;16.60;12.95;;;6.40;99.90;;;;;;5008571;28;20026;-76
2021/10/10 07:10:56;;;;;;;14.75;12.25;;;6.30;99.90;;;;;;5016815;28;20085;-75
2021/10/10 07:13:22;;;;;;;17.85;13.48;;;6.50;99.90;;;;;;5016708;28;20029;-75
2021/10/10 07:15:48;;;;;;;15.98;11.98;;;6.50;99.90;;;;;;5016429;28;20030;-76
2021/10/10 07:18:15;;;;;;;17.80;13.82;;;6.50;99.90;;;;;;5013420;28;20026;-74
2021/10/10 07:20:56;;;;;;;14.45;12.38;;;6.50;99.90;;;;;;5014626;28;20054;-74
2021/10/10 07:23:30;;;;;;;16.30;12.75;;;6.60;99.90;;;;;;5010759;28;20044;-76
2021/10/10 07:25:57;;;;;;;17.05;13.15;;;6.60;99.90;;;;;;5015650;28;20398;-75
2021/10/10 07:28:23;;;;;;;15.57;12.63;;;6.60;99.90;;;;;;5014983;28;20551;-76
2021/10/10 07:30:49;;;;;;;16.30;12.85;;;6.70;99.90;;;;;;5011358;28;20351;-75
2021/10/10 07:33:16;;;;;;;16.25;14.40;;;6.80;99.90;;;;;;5007859;28;20045;-76
2021/10/10 07:35:41;;;;;;;16.67;12.48;;;6.90;99.90;;;;;;5014123;28;20025;-77
2021/10/10 07:38:07;;;;;;;22.48;14.27;;;7.10;99.90;;;;;;5015163;28;20473;-76
2021/10/10 07:40:32;;;;;;;16.27;11.90;;;7.30;99.90;;;;;;5015734;28;20038;-77
2021/10/10 07:42:58;;;;;;;23.90;12.93;;;7.40;99.90;;;;;;5011322;28;20034;-75
2021/10/10 07:45:26;;;;;;;20.13;13.52;;;7.60;99.90;;;;;;5014650;28;20041;-76
2021/10/10 07:47:52;;;;;;;21.27;12.90;;;7.60;99.90;;;;;;5045176;22;20036;-76
2021/10/10 07:50:20;;;;;;;17.73;13.70;;;7.80;99.90;;;;;;5085780;28;20039;-77
2021/10/10 07:52:46;;;;;;;14.70;11.18;;;8.00;99.90;;;;;;5094736;28;20032;-76
2021/10/10 07:55:12;;;;;;;16.73;12.65;;;8.00;99.90;;;;;;5073982;28;20028;-76
2021/10/10 07:57:38;;;;;;;18.75;12.80;;;8.00;99.90;;;;;;5080879;28;20020;-77
2021/10/10 08:00:05;;;;;;;18.80;12.50;;;8.10;99.90;;;;;;5062032;28;20024;-77
2021/10/10 08:02:31;;;;;;;17.02;12.20;;;8.20;99.90;;;;;;5072945;28;20040;-76
2021/10/10 08:04:57;;;;;;;14.25;12.68;;;8.30;99.90;;;;;;5072787;28;20028;-76
2021/10/10 08:07:23;;;;;;;18.08;12.98;;;8.30;99.90;;;;;;5075237;28;20036;-78
2021/10/10 08:09:48;;;;;;;13.85;12.15;;;8.30;99.90;;;;;;5061106;28;20025;-77
2021/10/10 08:12:14;;;;;;;15.32;12.10;;;8.50;99.90;;;;;;5080353;28;20032;-77
2021/10/10 08:14:40;;;;;;;15.55;11.98;;;8.50;99.90;;;;;;5063064;28;20035;-77
2021/10/10 08:17:05;;;;;;;16.63;12.95;;;8.50;99.90;;;;;;5054963;28;20124;-76
2021/10/10 08:19:31;;;;;;;19.23;12.43;;;8.60;99.90;;;;;;5075514;28;20016;-77
2021/10/10 08:21:57;;;;;;;19.23;12.90;;;8.80;99.90;;;;;;5071964;28;20115;-76
2021/10/10 08:24:23;;;;;;;22.15;13.35;;;8.90;99.90;;;;;;5079847;28;20028;-79
2021/10/10 08:26:49;;;;;;;19.92;13.00;;;8.90;99.90;;;;;;5058792;28;20074;-79
2021/10/10 08:29:16;;;;;;;17.92;13.55;;;8.90;99.90;;;;;;5079118;28;20301;-77
2021/10/10 08:31:42;;;;;;;16.05;12.90;;;9.10;99.90;;;;;;5078428;28;20078;-76
2021/10/10 08:34:08;;;;;;;14.02;12.52;;;9.10;99.90;;;;;;5079244;28;20039;-77
2021/10/10 08:36:34;;;;;;;18.02;12.68;;;9.10;99.90;;;;;;5055991;28;20096;-76
2021/10/10 08:38:59;;;;;;;17.92;13.25;;;9.20;99.90;;;;;;5074484;28;20028;-78
2021/10/10 08:41:31;;;;;;;18.60;12.60;;;9.30;99.90;;;;;;5083769;28;20088;-77
2021/10/10 08:43:58;;;;;;;16.33;12.55;;;9.30;99.90;;;;;;5054844;28;20056;-77
2021/10/10 08:46:26;;;;;;;20.42;14.20;;;9.40;99.90;;;;;;5079066;28;20096;-78
2021/10/10 08:48:53;;;;;;;18.67;14.95;;;9.60;99.90;;;;;;5058078;28;20033;-76
2021/10/10 08:51:19;;;;;;;23.40;13.10;;;9.70;99.90;;;;;;5070351;28;20112;-77
2021/10/10 08:53:45;;;;;;;18.77;13.60;;;9.70;99.90;;;;;;5074869;28;20020;-77
2021/10/10 08:56:11;;;;;;;18.17;13.15;;;9.70;99.90;;;;;;5080912;28;20020;-77
2021/10/10 08:58:41;;;;;;;18.02;13.38;;;9.80;99.90;;;;;;5073819;28;20046;-77
2021/10/10 09:01:16;;;;;;;17.23;12.88;;;10.00;99.90;;;;;;5078593;28;20051;-78
2021/10/10 09:03:47;;;;;;;18.20;13.02;;;10.00;99.90;;;;;;5063107;28;20027;-78
2021/10/10 09:06:13;;;;;;;20.63;13.40;;;10.10;99.90;;;;;;5081151;28;20048;-77
2021/10/10 09:08:38;;;;;;;18.15;14.68;;;10.00;99.90;;;;;;5082791;28;20040;-77
2021/10/10 09:11:04;;;;;;;15.05;12.38;;;10.00;99.90;;;;;;5080431;28;20020;-77
2021/10/10 09:13:34;;;;;;;16.00;13.60;;;10.20;99.90;;;;;;5088612;28;20081;-77
2021/10/10 09:16:00;;;;;;;17.83;14.00;;;10.40;99.90;;;;;;5091096;28;20012;-77
2021/10/10 09:18:43;;;;;;;20.30;13.00;;;10.50;99.90;;;;;;5098339;28;20055;-77
2021/10/10 09:21:22;;;;;;;16.08;12.73;;;10.60;99.90;;;;;;5082726;28;20052;-76
2021/10/10 09:23:50;;;;;;;14.93;12.80;;;10.70;99.90;;;;;;5093238;28;20028;-78
2021/10/10 09:26:17;;;;;;;20.40;13.77;;;10.50;99.90;;;;;;5088849;28;20032;-77
2021/10/10 09:28:44;;;;;;;21.00;13.73;;;10.50;99.90;;;;;;5086938;28;20024;-77
2021/10/10 09:31:10;;;;;;;15.75;12.98;;;10.70;99.90;;;;;;5083171;28;20028;-77
2021/10/10 09:33:47;;;;;;;15.20;12.75;;;10.80;99.90;;;;;;5085244;28;20024;-76
2021/10/10 09:36:20;;;;;;;14.90;12.75;;;10.60;99.90;;;;;;5083085;28;20028;-77
2021/10/10 09:41:24;;;;;;;15.05;12.88;;;11.10;99.90;;;;;;5083710;28;20024;-78
2021/10/10 09:44:08;;;;;;;20.83;13.50;;;11.20;99.90;;;;;;5057415;28;20039;-77
2021/10/10 09:46:37;;;;;;;18.27;13.48;;;11.30;99.90;;;;;;5079028;28;20024;-76
2021/10/10 09:49:34;;;;;;;17.35;12.93;;;11.20;99.90;;;;;;5079603;28;20067;-78
2021/10/10 09:52:08;;;;;;;20.80;13.55;;;11.30;99.90;;;;;;5081599;28;20033;-77
2021/10/10 09:54:53;;;;;;;15.18;12.75;;;11.50;99.90;;;;;;5088066;28;20040;-76
2021/10/10 09:57:20;;;;;;;17.55;12.25;;;11.70;99.90;;;;;;5087615;28;20017;-77
2021/10/10 09:59:46;;;;;;;21.08;12.27;;;11.70;99.90;;;;;;5078715;28;20520;-76
2021/10/10 10:02:12;;;;;;;18.27;12.40;;;11.70;99.90;;;;;;5059772;28;20024;-77
2021/10/10 10:04:51;;;;;;;17.60;13.25;;;11.80;99.90;;;;;;5083375;28;20484;-78
2021/10/10 10:07:21;;;;;;;22.00;12.15;;;11.80;99.90;;;;;;5081052;28;20032;-78
2021/10/10 10:09:51;;;;;;;16.23;11.73;;;12.00;99.90;;;;;;5086780;28;20047;-77
2021/10/10 10:12:24;;;;;;;14.45;12.02;;;12.00;99.90;;;;;;5086492;28;20077;-77
2021/10/10 10:14:56;;;;;;;15.52;11.50;;;12.10;99.90;;;;;;5084039;28;20044;-77
2021/10/10 10:17:26;;;;;;;15.48;12.68;;;12.10;99.90;;;;;;5078396;28;20036;-77
2021/10/10 10:19:55;;;;;;;17.20;10.98;;;12.10;99.90;;;;;;5079318;28;20021;-77
2021/10/10 10:22:22;;;;;;;19.73;12.18;;;12.20;99.90;;;;;;5086277;28;20040;-78
2021/10/10 10:24:48;;;;;;;16.33;11.60;;;12.40;99.90;;;;;;5084259;28;20028;-77
2021/10/10 10:27:15;;;;;;;18.85;12.75;;;12.40;99.90;;;;;;5084276;28;20515;-76
2021/10/10 10:29:48;;;;;;;13.40;11.77;;;12.50;99.90;;;;;;5075981;28;20020;-74
2021/10/10 10:32:16;;;;;;;14.02;11.48;;;12.20;99.90;;;;;;5073169;28;20029;-74
2021/10/10 10:35:00;;;;;;;14.73;11.95;;;12.50;99.90;;;;;;5071195;28;20159;-74
2021/10/10 10:37:44;;;;;;;15.18;11.88;;;12.70;99.90;;;;;;5052795;28;20025;-75
2021/10/10 10:40:16;;;;;;;14.88;11.10;;;12.70;99.90;;;;;;5073838;28;20028;-75
2021/10/10 10:42:43;;;;;;;19.70;11.75;;;12.60;99.90;;;;;;5057455;28;20113;-76
2021/10/10 10:45:29;;;;;;;13.23;11.52;;;12.70;99.90;;;;;;5076939;28;20027;-74
2021/10/10 10:47:56;;;;;;;16.52;11.50;;;12.60;99.90;;;;;;5095639;28;20016;-74
2021/10/10 10:50:28;;;;;;;13.32;11.93;;;12.60;99.90;;;;;;5086567;28;20032;-77
2021/10/10 10:53:03;;;;;;;21.35;12.00;;;12.80;99.90;;;;;;5078265;28;20021;-75
2021/10/10 10:55:30;;;;;;;13.65;11.32;;;13.00;99.90;;;;;;5075842;28;20032;-74
2021/10/10 10:57:59;;;;;;;12.65;10.90;;;13.10;99.90;;;;;;5073508;28;20020;-76
2021/10/10 11:00:34;;;;;;;14.55;10.82;;;13.10;99.90;;;;;;5073597;28;20155;-76
2021/10/10 11:03:14;;;;;;;16.45;11.43;;;13.00;99.90;;;;;;5061700;28;20127;-75
2021/10/10 11:05:48;;;;;;;12.85;9.82;;;13.20;99.90;;;;;;5074595;28;20047;-75
2021/10/10 11:08:16;;;;;;;12.02;9.80;;;13.40;99.90;;;;;;5054763;28;20036;-76
2021/10/10 11:11:03;;;;;;;16.45;10.80;;;13.60;99.90;;;;;;5075271;28;20035;-76
2021/10/10 11:13:34;;;;;;;13.35;10.35;;;13.70;99.90;;;;;;5075740;28;20320;-75
2021/10/10 11:16:18;;;;;;;13.80;10.13;;;13.80;99.90;;;;;;5077914;28;20518;-74
2021/10/10 11:18:56;;;;;;;11.00;9.25;;;13.60;99.90;;;;;;5074897;28;20021;-74
2021/10/10 11:21:41;;;;;;;16.98;9.45;;;13.80;99.90;;;;;;5073735;28;20024;-74
2021/10/10 11:24:19;;;;;;;11.63;9.60;;;13.60;99.90;;;;;;5063749;28;20022;-75
2021/10/10 11:26:46;;;;;;;13.32;10.48;;;13.60;99.90;;;;;;5069605;28;20021;-75
2021/10/10 11:29:15;;;;;;;11.85;10.45;;;13.80;99.90;;;;;;5072108;28;20056;-76
2021/10/10 11:31:42;;;;;;;11.63;10.13;;;13.90;99.90;;;;;;5073687;28;20035;-75
2021/10/10 11:34:10;;;;;;;12.95;9.85;;;13.80;99.90;;;;;;5074170;28;20543;-74
2021/10/10 11:36:47;;;;;;;15.25;11.27;;;13.60;99.90;;;;;;5052043;28;20056;-76
2021/10/10 11:39:23;;;;;;;11.93;9.25;;;13.70;99.90;;;;;;5078038;28;20045;-74
2021/10/10 11:41:51;;;;;;;12.57;9.68;;;13.80;99.90;;;;;;5072150;28;20432;-75
2021/10/10 11:44:39;;;;;;;11.40;7.38;;;13.90;99.90;;;;;;5073618;28;20495;-75
2021/10/10 11:47:08;;;;;;;11.52;7.80;;;14.20;99.90;;;;;;5070035;28;20042;-77
2021/10/10 11:49:43;;;;;;;17.77;9.68;;;14.20;99.90;;;;;;5078547;28;20032;-75
2021/10/10 11:55:26;;;;;;;10.93;7.97;;;14.20;99.90;;;;;;5078380;28;20066;-79
2021/10/10 11:57:57;;;;;;;9.45;7.47;;;14.30;99.30;;;;;;5057111;28;20098;-76
2021/10/10 12:00:25;;;;;;;9.63;7.43;;;14.50;98.50;;;;;;5075578;28;20031;-76
2021/10/10 12:02:51;;;;;;;9.57;7.05;;;14.40;97.90;;;;;;5063396;28;20033;-77
2021/10/10 12:05:22;;;;;;;9.68;8.20;;;14.40;97.50;;;;;;5076188;28;20581;-76
2021/10/10 12:07:49;;;;;;;14.98;7.75;;;14.40;98.30;;;;;;5071590;28;20017;-75
2021/10/10 12:10:20;;;;;;;10.00;8.18;;;14.30;98.80;;;;;;5073712;28;20478;-76
2021/10/10 12:12:47;;;;;;;13.60;8.35;;;14.20;99.30;;;;;;5061985;28;20024;-77
2021/10/10 12:15:16;;;;;;;9.98;7.40;;;14.40;98.20;;;;;;5078720;28;20037;-76
2021/10/10 12:17:44;;;;;;;9.48;7.35;;;14.20;98.20;;;;;;5079048;28;20020;-77
2021/10/10 12:20:15;;;;;;;9.52;7.45;;;14.10;98.60;;;;;;5074989;28;20048;-77
2021/10/10 12:23:03;;;;;;;12.75;8.38;;;14.30;97.80;;;;;;5056162;28;20028;-76
2021/10/10 12:25:37;;;;;;;9.93;7.65;;;14.40;97.70;;;;;;5052655;28;20024;-76
2021/10/10 12:28:04;;;;;;;9.00;6.60;;;14.00;98.80;;;;;;5078747;28;20013;-77
2021/10/10 12:30:33;;;;;;;10.27;8.23;;;14.10;98.00;;;;;;5074871;28;20017;-79
2021/10/10 12:33:18;;;;;;;13.77;7.72;;;14.30;97.80;;;;;;5064102;28;20040;-78
2021/10/10 12:35:59;;;;;;;11.27;7.03;;;14.40;98.70;;;;;;5081358;28;20035;-79
2021/10/10 12:38:39;;;;;;;14.15;7.47;;;14.50;97.10;;;;;;5078702;28;20391;-79
2021/10/10 12:41:20;;;;;;;9.13;6.63;;;14.60;96.20;;;;;;5074539;28;20078;-80
2021/10/10 12:43:46;;;;;;;9.05;7.10;;;14.60;96.20;;;;;;5075855;28;20025;-78
2021/10/10 12:46:12;;;;;;;8.93;7.65;;;14.60;95.60;;;;;;5076837;28;20033;-79
2021/10/10 12:48:38;;;;;;;14.32;7.65;;;14.60;96.30;;;;;;5075360;28;20039;-80